Abrela — EAVW — position and weather

sailwx.info

Track history (hours):
 
Tides and Currents Weather Stations Pressure Air Temp Water Temp Dewpoint Dewpoint Depression Visibility Wind Speed Wind Dir Waves Ship Positions

Abrela

Last reported at 2017-Apr-24 19:26 UTC. Time now 2017-Apr-30 01:27 UTC.
Position N 43°34' W 005°34'.

Length 30 m.

MMSI: 224204490.

Date/timePositionNaut miles runAvg speedWind from/ knotsBaromVisibWave heightAir tempDewpointWater temp
2017-Apr-24 19:26N 43°34' W 005°34'4 9.7
2017-Apr-24 19:00N 43°34' W 005°40'2 2.7
2017-Apr-24 18:26N 43°33' W 005°42'0 0.0
2017-Apr-24 17:51N 43°33' W 005°42'0 0.0
2017-Apr-24 17:24N 43°33' W 005°42'19 9.7
2017-Apr-24 15:26N 43°36' W 005°15'  
2017-Apr-18 01:50N 43°36' W 005°09'3 6.8
2017-Apr-18 01:27N 43°36' W 005°12'7 7.0
2017-Apr-18 00:30N 43°35' W 005°22'9 7.0
2017-Apr-17 23:15N 43°34' W 005°34'3 7.2
2017-Apr-17 22:47N 43°34' W 005°38'2 7.3
2017-Apr-17 22:30N 43°34' W 005°41'1 1.3
2017-Apr-17 21:58N 43°33' W 005°42'0 0.0
2017-Apr-17 21:29N 43°33' W 005°42'0 0.0
2017-Apr-17 21:00N 43°33' W 005°42'3 5.2
2017-Apr-17 20:30N 43°36' W 005°40'5 8.0
2017-Apr-17 19:52N 43°41' W 005°41'0 0.5
2017-Apr-17 19:30N 43°41' W 005°41'2 3.9
2017-Apr-17 18:59N 43°41' W 005°43'2 3.9
2017-Apr-17 18:30N 43°42' W 005°46'2 3.5
2017-Apr-17 18:00N 43°43' W 005°48'2 3.5
2017-Apr-17 17:30N 43°42' W 005°51'2 3.6
2017-Apr-17 17:00N 43°42' W 005°53'5 2.2
2017-Apr-17 14:55N 43°42' W 005°47'5 4.0
2017-Apr-17 13:35N 43°41' W 005°40'0 4.1
2017-Apr-17 13:29N 43°41' W 005°39'3 4.2
2017-Apr-17 12:42N 43°40' W 005°35'1 3.0
2017-Apr-17 12:30N 43°39' W 005°34'3 6.6
2017-Apr-17 12:00N 43°40' W 005°30'0 0.5
2017-Apr-17 11:29N 43°40' W 005°30'2 3.8
2017-Apr-17 11:00N 43°41' W 005°32'2 3.8
2017-Apr-17 10:28N 43°42' W 005°35'2 3.4
2017-Apr-17 09:59N 43°42' W 005°37'2 3.8
2017-Apr-17 09:30N 43°42' W 005°39'2 3.5
2017-Apr-17 09:00N 43°41' W 005°42'2 3.4
2017-Apr-17 08:30N 43°42' W 005°44'2 3.5
2017-Apr-17 08:00N 43°42' W 005°46'0 0.6
2017-Apr-17 07:30N 43°42' W 005°46'1 1.8
2017-Apr-17 06:57N 43°42' W 005°47'2 3.5
2017-Apr-17 06:30N 43°43' W 005°49'2 3.4
2017-Apr-17 06:00N 43°42' W 005°52'2 2.9
2017-Apr-17 05:24N 43°42' W 005°54'0 0.5
2017-Apr-17 04:36N 43°42' W 005°54'0 1.0
2017-Apr-17 04:15N 43°42' W 005°53'4 6.1
2017-Apr-17 03:39N 43°41' W 005°48'2 7.1
2017-Apr-17 03:26N 43°40' W 005°47'3 7.0
2017-Apr-17 03:00N 43°38' W 005°44'3 6.9
2017-Apr-17 02:30N 43°35' W 005°40'2 4.5
2017-Apr-17 02:00N 43°33' W 005°42'0 0.0
2017-Apr-17 01:30N 43°33' W 005°42'  
Track history (hours):
 
Tides and Currents Weather Stations Pressure Air Temp Water Temp Dewpoint Dewpoint Depression Visibility Wind Speed Wind Dir Waves Ship Positions

Abrela

Last reported at 2017-Apr-24 19:26 UTC. Time now 2017-Apr-30 01:27 UTC.
Position N 43°34' W 005°34'.

Length 30 m.

MMSI: 224204490.

Date/timePositionNaut miles runAvg speedWind from/ knotsBaromVisibWave heightAir tempDewpointWater temp
2017-Apr-24 19:26N 43°34' W 005°34'4 9.7
2017-Apr-24 19:00N 43°34' W 005°40'2 2.7
2017-Apr-24 18:26N 43°33' W 005°42'0 0.0
2017-Apr-24 17:51N 43°33' W 005°42'0 0.0
2017-Apr-24 17:24N 43°33' W 005°42'19 9.7
2017-Apr-24 15:26N 43°36' W 005°15'  
2017-Apr-18 01:50N 43°36' W 005°09'3 6.8
2017-Apr-18 01:27N 43°36' W 005°12'7 7.0
2017-Apr-18 00:30N 43°35' W 005°22'9 7.0
2017-Apr-17 23:15N 43°34' W 005°34'3 7.2
2017-Apr-17 22:47N 43°34' W 005°38'2 7.3
2017-Apr-17 22:30N 43°34' W 005°41'1 1.3
2017-Apr-17 21:58N 43°33' W 005°42'0 0.0
2017-Apr-17 21:29N 43°33' W 005°42'0 0.0
2017-Apr-17 21:00N 43°33' W 005°42'3 5.2
2017-Apr-17 20:30N 43°36' W 005°40'5 8.0
2017-Apr-17 19:52N 43°41' W 005°41'0 0.5
2017-Apr-17 19:30N 43°41' W 005°41'2 3.9
2017-Apr-17 18:59N 43°41' W 005°43'2 3.9
2017-Apr-17 18:30N 43°42' W 005°46'2 3.5
2017-Apr-17 18:00N 43°43' W 005°48'2 3.5
2017-Apr-17 17:30N 43°42' W 005°51'2 3.6
2017-Apr-17 17:00N 43°42' W 005°53'5 2.2
2017-Apr-17 14:55N 43°42' W 005°47'5 4.0
2017-Apr-17 13:35N 43°41' W 005°40'0 4.1
2017-Apr-17 13:29N 43°41' W 005°39'3 4.2
2017-Apr-17 12:42N 43°40' W 005°35'1 3.0
2017-Apr-17 12:30N 43°39' W 005°34'3 6.6
2017-Apr-17 12:00N 43°40' W 005°30'0 0.5
2017-Apr-17 11:29N 43°40' W 005°30'2 3.8
2017-Apr-17 11:00N 43°41' W 005°32'2 3.8
2017-Apr-17 10:28N 43°42' W 005°35'2 3.4
2017-Apr-17 09:59N 43°42' W 005°37'2 3.8
2017-Apr-17 09:30N 43°42' W 005°39'2 3.5
2017-Apr-17 09:00N 43°41' W 005°42'2 3.4
2017-Apr-17 08:30N 43°42' W 005°44'2 3.5
2017-Apr-17 08:00N 43°42' W 005°46'0 0.6
2017-Apr-17 07:30N 43°42' W 005°46'1 1.8
2017-Apr-17 06:57N 43°42' W 005°47'2 3.5
2017-Apr-17 06:30N 43°43' W 005°49'2 3.4
2017-Apr-17 06:00N 43°42' W 005°52'2 2.9
2017-Apr-17 05:24N 43°42' W 005°54'0 0.5
2017-Apr-17 04:36N 43°42' W 005°54'0 1.0
2017-Apr-17 04:15N 43°42' W 005°53'4 6.1
2017-Apr-17 03:39N 43°41' W 005°48'2 7.1
2017-Apr-17 03:26N 43°40' W 005°47'3 7.0
2017-Apr-17 03:00N 43°38' W 005°44'3 6.9
2017-Apr-17 02:30N 43°35' W 005°40'2 4.5
2017-Apr-17 02:00N 43°33' W 005°42'0 0.0
2017-Apr-17 01:30N 43°33' W 005°42'  

Dump ship's entire track history